Main page
METAR-TAF:

METAR-TAF

Airports :

Cerklje ob Krki Airport

Cerklje ob Krki, Slovenia

latitude: 45-53-59N, longitude: 15-30-55E, elevation: 157 m

Current weather observation

The report was made 41 minutes ago, at 01:30 UTC
Calm wind
Temperature 4°C
Humidity 93%
Pressure 1029 hPa
Visibility: 9000 m

METAR: LJCE 160130Z AUTO 00000KT 9000 FEW043/// OVC063/// 04/03 Q1029

Time: 03:11 (02:11 UTC)

Forecast

The report was made 3 hours and 11 minutes ago, at 23:00 UTC
Forecast valid from 16 at 00 UTC to 16 at 09 UTC
Wind 2 kt from variable directions
Visibility 10 km or more
Few clouds at a height of 4000 ft
Temporary
from 16 at 00 UTC to 16 at 06 UTC
Broken clouds at a height of 3500 ft
Becoming
from 16 at 06 UTC to 16 at 08 UTC
Wind 5 kt from the East
Broken clouds at a height of 3500 ft

TAF: LJCE 152300Z 1600/1609 VRB02KT 9999 FEW040 TEMPO 1600/1606 BKN035 BECMG 1606/1608 09005KT BKN035

Weather observations and forecasts of more than 4000 airports (METAR and TAF reports).

The available stations are represented by yellow and red dots on the map.

Hover mouse over dot to see the name of the station.

Then click to see weather observations and forecasts.

To change the map : click on the green buttons with a black cross to zoom in, on the green button with a dash to zoom out, or on the green arrows for adjacent maps.


METAR-TAF: